sensor_id;sensor_type;location;lat;lon;timestamp;temperature;humidity
5689;DHT22;2869;50.432;8.680;2023-04-20T00:00:15;6.80;99.90
5689;DHT22;2869;50.432;8.680;2023-04-20T00:02:42;6.80;99.90
5689;DHT22;2869;50.432;8.680;2023-04-20T00:05:10;6.80;99.90
5689;DHT22;2869;50.432;8.680;2023-04-20T00:07:37;6.90;99.90
5689;DHT22;2869;50.432;8.680;2023-04-20T00:10:08;6.80;99.90
5689;DHT22;2869;50.432;8.680;2023-04-20T00:12:35;6.80;99.90
5689;DHT22;2869;50.432;8.680;2023-04-20T00:15:01;6.80;99.90
5689;DHT22;2869;50.432;8.680;2023-04-20T00:17:29;6.80;99.90
5689;DHT22;2869;50.432;8.680;2023-04-20T00:19:55;6.80;99.90
5689;DHT22;2869;50.432;8.680;2023-04-20T00:22:22;6.80;99.90
5689;DHT22;2869;50.432;8.680;2023-04-20T00:24:49;6.80;99.90
5689;DHT22;2869;50.432;8.680;2023-04-20T00:27:17;6.80;99.90
5689;DHT22;2869;50.432;8.680;2023-04-20T00:29:44;6.80;99.90
5689;DHT22;2869;50.432;8.680;2023-04-20T00:32:10;6.80;99.90
5689;DHT22;2869;50.432;8.680;2023-04-20T00:34:37;6.70;99.90
5689;DHT22;2869;50.432;8.680;2023-04-20T00:37:03;6.70;99.90
5689;DHT22;2869;50.432;8.680;2023-04-20T00:39:30;6.70;99.90
5689;DHT22;2869;50.432;8.680;2023-04-20T00:42:02;6.60;99.90
5689;DHT22;2869;50.432;8.680;2023-04-20T00:44:30;6.60;99.90
5689;DHT22;2869;50.432;8.680;2023-04-20T00:46:57;6.60;99.90
5689;DHT22;2869;50.432;8.680;2023-04-20T00:49:25;6.50;99.90
5689;DHT22;2869;50.432;8.680;2023-04-20T00:51:55;6.50;99.90
5689;DHT22;2869;50.432;8.680;2023-04-20T00:54:22;6.40;99.90
5689;DHT22;2869;50.432;8.680;2023-04-20T00:56:49;6.50;99.90
5689;DHT22;2869;50.432;8.680;2023-04-20T00:59:17;6.40;99.90
5689;DHT22;2869;50.432;8.680;2023-04-20T01:01:45;6.40;99.90
5689;DHT22;2869;50.432;8.680;2023-04-20T01:04:12;6.50;99.90
5689;DHT22;2869;50.432;8.680;2023-04-20T01:06:39;6.50;99.90
5689;DHT22;2869;50.432;8.680;2023-04-20T01:09:05;6.50;99.90
5689;DHT22;2869;50.432;8.680;2023-04-20T01:11:32;6.50;99.90
5689;DHT22;2869;50.432;8.680;2023-04-20T01:13:59;6.50;99.90
5689;DHT22;2869;50.432;8.680;2023-04-20T01:16:26;6.50;99.90
5689;DHT22;2869;50.432;8.680;2023-04-20T01:18:54;6.40;99.90
5689;DHT22;2869;50.432;8.680;2023-04-20T01:21:21;6.30;99.90
5689;DHT22;2869;50.432;8.680;2023-04-20T01:23:49;6.30;99.90
5689;DHT22;2869;50.432;8.680;2023-04-20T01:26:17;6.20;99.90
5689;DHT22;2869;50.432;8.680;2023-04-20T01:28:44;6.10;99.90
5689;DHT22;2869;50.432;8.680;2023-04-20T01:31:12;6.00;99.90
5689;DHT22;2869;50.432;8.680;2023-04-20T01:33:39;5.90;99.90
5689;DHT22;2869;50.432;8.680;2023-04-20T01:36:07;5.80;99.90
5689;DHT22;2869;50.432;8.680;2023-04-20T01:38:33;5.90;99.90
5689;DHT22;2869;50.432;8.680;2023-04-20T01:41:02;5.90;99.90
5689;DHT22;2869;50.432;8.680;2023-04-20T01:43:30;5.90;99.90
5689;DHT22;2869;50.432;8.680;2023-04-20T01:45:58;5.80;99.90
5689;DHT22;2869;50.432;8.680;2023-04-20T01:48:25;5.80;99.90
5689;DHT22;2869;50.432;8.680;2023-04-20T01:50:52;5.70;99.90
5689;DHT22;2869;50.432;8.680;2023-04-20T01:53:18;5.70;99.90
5689;DHT22;2869;50.432;8.680;2023-04-20T01:55:46;5.70;99.90
5689;DHT22;2869;50.432;8.680;2023-04-20T01:58:14;5.60;99.90
5689;DHT22;2869;50.432;8.680;2023-04-20T02:00:40;5.50;99.90
5689;DHT22;2869;50.432;8.680;2023-04-20T02:03:07;5.50;99.90
5689;DHT22;2869;50.432;8.680;2023-04-20T02:05:34;5.50;99.90
5689;DHT22;2869;50.432;8.680;2023-04-20T02:08:01;5.40;99.90
5689;DHT22;2869;50.432;8.680;2023-04-20T02:10:27;5.40;99.90
5689;DHT22;2869;50.432;8.680;2023-04-20T02:12:54;5.40;99.90
5689;DHT22;2869;50.432;8.680;2023-04-20T02:15:22;5.40;99.90
5689;DHT22;2869;50.432;8.680;2023-04-20T02:17:48;5.40;99.90
5689;DHT22;2869;50.432;8.680;2023-04-20T02:20:16;5.40;99.90
5689;DHT22;2869;50.432;8.680;2023-04-20T02:22:44;5.30;99.90
5689;DHT22;2869;50.432;8.680;2023-04-20T02:25:11;5.20;99.90
5689;DHT22;2869;50.432;8.680;2023-04-20T02:27:37;5.20;99.90
5689;DHT22;2869;50.432;8.680;2023-04-20T02:30:05;5.20;99.90
5689;DHT22;2869;50.432;8.680;2023-04-20T02:32:34;5.10;99.90
5689;DHT22;2869;50.432;8.680;2023-04-20T02:35:00;5.10;99.90
5689;DHT22;2869;50.432;8.680;2023-04-20T02:37:28;5.10;99.90
5689;DHT22;2869;50.432;8.680;2023-04-20T02:39:55;5.00;99.90
5689;DHT22;2869;50.432;8.680;2023-04-20T02:42:22;4.90;99.90
5689;DHT22;2869;50.432;8.680;2023-04-20T02:44:48;4.80;99.90
5689;DHT22;2869;50.432;8.680;2023-04-20T02:47:17;4.80;99.90
5689;DHT22;2869;50.432;8.680;2023-04-20T02:49:45;4.80;99.90
5689;DHT22;2869;50.432;8.680;2023-04-20T02:52:11;4.70;99.90
5689;DHT22;2869;50.432;8.680;2023-04-20T02:54:38;4.80;99.90
5689;DHT22;2869;50.432;8.680;2023-04-20T02:57:05;4.70;99.90
5689;DHT22;2869;50.432;8.680;2023-04-20T02:59:32;4.60;99.90
5689;DHT22;2869;50.432;8.680;2023-04-20T03:01:58;4.60;99.90
5689;DHT22;2869;50.432;8.680;2023-04-20T03:04:25;4.50;99.90
5689;DHT22;2869;50.432;8.680;2023-04-20T03:06:53;4.50;99.90
5689;DHT22;2869;50.432;8.680;2023-04-20T03:09:20;4.50;99.90
5689;DHT22;2869;50.432;8.680;2023-04-20T03:11:46;4.50;99.90
5689;DHT22;2869;50.432;8.680;2023-04-20T03:14:13;4.50;99.90
5689;DHT22;2869;50.432;8.680;2023-04-20T03:16:40;4.40;99.90
5689;DHT22;2869;50.432;8.680;2023-04-20T03:19:07;4.30;99.90
5689;DHT22;2869;50.432;8.680;2023-04-20T03:21:33;4.30;99.90
5689;DHT22;2869;50.432;8.680;2023-04-20T03:24:02;4.30;99.90
5689;DHT22;2869;50.432;8.680;2023-04-20T03:26:28;4.30;99.90
5689;DHT22;2869;50.432;8.680;2023-04-20T03:28:55;4.40;99.90
5689;DHT22;2869;50.432;8.680;2023-04-20T03:31:22;4.30;99.90
5689;DHT22;2869;50.432;8.680;2023-04-20T03:33:49;4.30;99.90
5689;DHT22;2869;50.432;8.680;2023-04-20T03:36:15;4.30;99.90
5689;DHT22;2869;50.432;8.680;2023-04-20T03:38:42;4.30;99.90
5689;DHT22;2869;50.432;8.680;2023-04-20T03:41:10;4.40;99.90
5689;DHT22;2869;50.432;8.680;2023-04-20T03:43:37;4.40;99.90
5689;DHT22;2869;50.432;8.680;2023-04-20T03:46:03;4.30;99.90
5689;DHT22;2869;50.432;8.680;2023-04-20T03:48:30;4.40;99.90
5689;DHT22;2869;50.432;8.680;2023-04-20T03:50:57;4.30;99.90
5689;DHT22;2869;50.432;8.680;2023-04-20T03:53:25;4.30;99.90
5689;DHT22;2869;50.432;8.680;2023-04-20T03:55:53;4.30;99.90
5689;DHT22;2869;50.432;8.680;2023-04-20T03:58:21;4.30;99.90
5689;DHT22;2869;50.432;8.680;2023-04-20T04:00:48;4.30;99.90
5689;DHT22;2869;50.432;8.680;2023-04-20T04:03:14;4.30;99.90
5689;DHT22;2869;50.432;8.680;2023-04-20T04:05:41;4.30;99.90
5689;DHT22;2869;50.432;8.680;2023-04-20T04:08:07;4.30;99.90
5689;DHT22;2869;50.432;8.680;2023-04-20T04:10:34;4.30;99.90
5689;DHT22;2869;50.432;8.680;2023-04-20T04:13:01;4.30;99.90
5689;DHT22;2869;50.432;8.680;2023-04-20T04:15:29;4.30;99.90
5689;DHT22;2869;50.432;8.680;2023-04-20T04:17:56;4.30;99.90
5689;DHT22;2869;50.432;8.680;2023-04-20T04:20:22;4.30;99.90
5689;DHT22;2869;50.432;8.680;2023-04-20T04:22:49;4.30;99.90
5689;DHT22;2869;50.432;8.680;2023-04-20T04:25:16;4.20;99.90
5689;DHT22;2869;50.432;8.680;2023-04-20T04:27:43;4.20;99.90
5689;DHT22;2869;50.432;8.680;2023-04-20T04:30:11;4.10;99.90
5689;DHT22;2869;50.432;8.680;2023-04-20T04:32:40;4.10;99.90
5689;DHT22;2869;50.432;8.680;2023-04-20T04:35:07;4.20;99.90
5689;DHT22;2869;50.432;8.680;2023-04-20T04:37:34;4.10;99.90
5689;DHT22;2869;50.432;8.680;2023-04-20T04:40:01;4.10;99.90
5689;DHT22;2869;50.432;8.680;2023-04-20T04:42:31;4.10;99.90
5689;DHT22;2869;50.432;8.680;2023-04-20T04:44:58;4.10;99.90
5689;DHT22;2869;50.432;8.680;2023-04-20T04:47:26;4.20;99.90
5689;DHT22;2869;50.432;8.680;2023-04-20T04:49:55;4.20;99.90
5689;DHT22;2869;50.432;8.680;2023-04-20T04:52:21;4.20;99.90
5689;DHT22;2869;50.432;8.680;2023-04-20T04:54:48;4.20;99.90
5689;DHT22;2869;50.432;8.680;2023-04-20T04:57:15;4.20;99.90
5689;DHT22;2869;50.432;8.680;2023-04-20T04:59:41;4.20;99.90
5689;DHT22;2869;50.432;8.680;2023-04-20T05:02:08;4.30;99.90
5689;DHT22;2869;50.432;8.680;2023-04-20T05:04:35;4.30;99.90
5689;DHT22;2869;50.432;8.680;2023-04-20T05:07:03;4.30;99.90
5689;DHT22;2869;50.432;8.680;2023-04-20T05:09:29;4.40;99.90
5689;DHT22;2869;50.432;8.680;2023-04-20T05:11:58;4.40;99.90
5689;DHT22;2869;50.432;8.680;2023-04-20T05:14:25;4.50;99.90
5689;DHT22;2869;50.432;8.680;2023-04-20T05:16:51;4.50;99.90
5689;DHT22;2869;50.432;8.680;2023-04-20T05:19:18;4.70;99.90
5689;DHT22;2869;50.432;8.680;2023-04-20T05:21:44;4.60;99.90
5689;DHT22;2869;50.432;8.680;2023-04-20T05:24:12;4.60;99.90
5689;DHT22;2869;50.432;8.680;2023-04-20T05:26:39;4.50;99.90
5689;DHT22;2869;50.432;8.680;2023-04-20T05:29:06;4.40;99.90
5689;DHT22;2869;50.432;8.680;2023-04-20T05:31:32;4.50;99.90
5689;DHT22;2869;50.432;8.680;2023-04-20T05:33:59;4.50;99.90
5689;DHT22;2869;50.432;8.680;2023-04-20T05:36:26;4.50;99.90
5689;DHT22;2869;50.432;8.680;2023-04-20T05:38:53;4.50;99.90
5689;DHT22;2869;50.432;8.680;2023-04-20T05:41:21;4.50;99.90
5689;DHT22;2869;50.432;8.680;2023-04-20T05:43:51;4.50;99.90
5689;DHT22;2869;50.432;8.680;2023-04-20T05:46:18;4.50;99.90
5689;DHT22;2869;50.432;8.680;2023-04-20T05:48:44;4.60;99.90
5689;DHT22;2869;50.432;8.680;2023-04-20T05:51:11;4.60;99.90
5689;DHT22;2869;50.432;8.680;2023-04-20T05:53:38;4.60;99.90
5689;DHT22;2869;50.432;8.680;2023-04-20T05:56:05;4.50;99.90
5689;DHT22;2869;50.432;8.680;2023-04-20T05:58:34;4.60;99.90
5689;DHT22;2869;50.432;8.680;2023-04-20T06:01:01;4.70;99.90
5689;DHT22;2869;50.432;8.680;2023-04-20T06:03:28;4.60;99.90
5689;DHT22;2869;50.432;8.680;2023-04-20T06:05:55;4.60;99.90
5689;DHT22;2869;50.432;8.680;2023-04-20T06:08:22;4.60;99.90
5689;DHT22;2869;50.432;8.680;2023-04-20T06:10:52;4.60;99.90
5689;DHT22;2869;50.432;8.680;2023-04-20T06:13:20;4.60;99.90
5689;DHT22;2869;50.432;8.680;2023-04-20T06:15:48;4.60;99.90
5689;DHT22;2869;50.432;8.680;2023-04-20T06:18:17;4.70;99.90
5689;DHT22;2869;50.432;8.680;2023-04-20T06:20:43;4.80;99.90
5689;DHT22;2869;50.432;8.680;2023-04-20T06:23:10;4.80;99.90
5689;DHT22;2869;50.432;8.680;2023-04-20T06:25:37;4.80;99.90
5689;DHT22;2869;50.432;8.680;2023-04-20T06:28:04;4.80;99.90
5689;DHT22;2869;50.432;8.680;2023-04-20T06:30:31;4.80;99.90
5689;DHT22;2869;50.432;8.680;2023-04-20T06:32:59;4.90;99.90
5689;DHT22;2869;50.432;8.680;2023-04-20T06:35:26;4.90;99.90
5689;DHT22;2869;50.432;8.680;2023-04-20T06:37:53;5.00;99.90
5689;DHT22;2869;50.432;8.680;2023-04-20T06:40:22;5.00;99.90
5689;DHT22;2869;50.432;8.680;2023-04-20T06:42:48;5.00;99.90
5689;DHT22;2869;50.432;8.680;2023-04-20T06:45:15;5.00;99.90
5689;DHT22;2869;50.432;8.680;2023-04-20T06:47:42;5.00;99.90
5689;DHT22;2869;50.432;8.680;2023-04-20T06:50:10;5.00;99.90
5689;DHT22;2869;50.432;8.680;2023-04-20T06:52:38;5.00;99.90
5689;DHT22;2869;50.432;8.680;2023-04-20T06:55:05;5.10;99.90
5689;DHT22;2869;50.432;8.680;2023-04-20T06:57:32;5.00;99.90
5689;DHT22;2869;50.432;8.680;2023-04-20T06:59:59;5.10;99.90
5689;DHT22;2869;50.432;8.680;2023-04-20T07:02:26;5.10;99.90
5689;DHT22;2869;50.432;8.680;2023-04-20T07:04:59;5.10;99.90
5689;DHT22;2869;50.432;8.680;2023-04-20T07:07:28;5.20;99.90
5689;DHT22;2869;50.432;8.680;2023-04-20T07:09:54;5.20;99.90
5689;DHT22;2869;50.432;8.680;2023-04-20T07:12:21;5.20;99.90
5689;DHT22;2869;50.432;8.680;2023-04-20T07:14:48;5.20;99.90
5689;DHT22;2869;50.432;8.680;2023-04-20T07:17:14;5.10;99.90
5689;DHT22;2869;50.432;8.680;2023-04-20T07:19:41;5.20;99.90
5689;DHT22;2869;50.432;8.680;2023-04-20T07:22:08;5.30;99.90
5689;DHT22;2869;50.432;8.680;2023-04-20T07:24:36;5.40;99.90
5689;DHT22;2869;50.432;8.680;2023-04-20T07:27:02;5.40;99.90
5689;DHT22;2869;50.432;8.680;2023-04-20T07:29:30;5.50;99.90
5689;DHT22;2869;50.432;8.680;2023-04-20T07:31:56;5.60;99.90
5689;DHT22;2869;50.432;8.680;2023-04-20T07:34:23;5.50;99.90
5689;DHT22;2869;50.432;8.680;2023-04-20T07:36:49;5.60;99.90
5689;DHT22;2869;50.432;8.680;2023-04-20T07:39:16;5.70;99.90
5689;DHT22;2869;50.432;8.680;2023-04-20T07:41:44;5.80;99.90
5689;DHT22;2869;50.432;8.680;2023-04-20T07:44:11;5.80;99.90
5689;DHT22;2869;50.432;8.680;2023-04-20T07:46:38;5.80;99.90
5689;DHT22;2869;50.432;8.680;2023-04-20T07:49:05;5.80;99.90
5689;DHT22;2869;50.432;8.680;2023-04-20T07:51:31;5.80;99.90
5689;DHT22;2869;50.432;8.680;2023-04-20T07:53:58;5.80;99.90
5689;DHT22;2869;50.432;8.680;2023-04-20T07:56:25;5.80;99.90
5689;DHT22;2869;50.432;8.680;2023-04-20T07:58:53;5.70;99.90
5689;DHT22;2869;50.432;8.680;2023-04-20T08:01:22;5.80;99.90
5689;DHT22;2869;50.432;8.680;2023-04-20T08:03:49;5.80;99.90
5689;DHT22;2869;50.432;8.680;2023-04-20T08:06:16;5.90;99.90
5689;DHT22;2869;50.432;8.680;2023-04-20T08:08:42;5.90;99.90
5689;DHT22;2869;50.432;8.680;2023-04-20T08:11:09;6.10;99.90
5689;DHT22;2869;50.432;8.680;2023-04-20T08:13:37;6.10;99.90
5689;DHT22;2869;50.432;8.680;2023-04-20T08:16:05;6.20;99.90
5689;DHT22;2869;50.432;8.680;2023-04-20T08:18:32;6.30;99.90
5689;DHT22;2869;50.432;8.680;2023-04-20T08:20:58;6.40;99.90
5689;DHT22;2869;50.432;8.680;2023-04-20T08:23:25;6.50;99.90
5689;DHT22;2869;50.432;8.680;2023-04-20T08:25:53;6.50;99.90
5689;DHT22;2869;50.432;8.680;2023-04-20T08:28:20;6.50;99.90
5689;DHT22;2869;50.432;8.680;2023-04-20T08:30:47;6.40;99.90
5689;DHT22;2869;50.432;8.680;2023-04-20T08:33:15;6.50;99.90
5689;DHT22;2869;50.432;8.680;2023-04-20T08:35:42;6.60;99.90
5689;DHT22;2869;50.432;8.680;2023-04-20T08:38:08;6.70;99.90
5689;DHT22;2869;50.432;8.680;2023-04-20T08:40:36;6.90;99.90
5689;DHT22;2869;50.432;8.680;2023-04-20T08:43:02;7.10;99.90
5689;DHT22;2869;50.432;8.680;2023-04-20T08:45:29;7.20;99.90
5689;DHT22;2869;50.432;8.680;2023-04-20T08:47:57;7.20;99.90
5689;DHT22;2869;50.432;8.680;2023-04-20T08:50:25;7.30;99.90
5689;DHT22;2869;50.432;8.680;2023-04-20T08:52:52;7.40;99.90
5689;DHT22;2869;50.432;8.680;2023-04-20T08:55:19;7.40;99.90
5689;DHT22;2869;50.432;8.680;2023-04-20T08:57:47;7.50;99.90
5689;DHT22;2869;50.432;8.680;2023-04-20T09:00:15;7.50;99.90
5689;DHT22;2869;50.432;8.680;2023-04-20T09:02:48;7.50;99.90
5689;DHT22;2869;50.432;8.680;2023-04-20T09:05:25;7.60;99.90
5689;DHT22;2869;50.432;8.680;2023-04-20T09:07:53;7.80;99.90
5689;DHT22;2869;50.432;8.680;2023-04-20T09:10:20;8.10;99.90
5689;DHT22;2869;50.432;8.680;2023-04-20T09:12:48;8.70;99.90
5689;DHT22;2869;50.432;8.680;2023-04-20T09:15:24;9.40;99.90
5689;DHT22;2869;50.432;8.680;2023-04-20T09:17:50;9.70;99.90
5689;DHT22;2869;50.432;8.680;2023-04-20T09:20:27;9.60;99.90
5689;DHT22;2869;50.432;8.680;2023-04-20T09:22:54;9.70;99.90
5689;DHT22;2869;50.432;8.680;2023-04-20T09:25:23;9.90;99.90
5689;DHT22;2869;50.432;8.680;2023-04-20T09:27:55;10.50;99.90
5689;DHT22;2869;50.432;8.680;2023-04-20T09:30:22;10.70;99.90
5689;DHT22;2869;50.432;8.680;2023-04-20T09:33:00;10.70;99.90
5689;DHT22;2869;50.432;8.680;2023-04-20T09:35:27;10.40;99.90
5689;DHT22;2869;50.432;8.680;2023-04-20T09:37:54;10.40;99.90
5689;DHT22;2869;50.432;8.680;2023-04-20T09:40:22;10.50;99.90
5689;DHT22;2869;50.432;8.680;2023-04-20T09:42:50;10.80;99.90
5689;DHT22;2869;50.432;8.680;2023-04-20T09:45:18;11.20;99.90
5689;DHT22;2869;50.432;8.680;2023-04-20T09:47:46;11.50;99.90
5689;DHT22;2869;50.432;8.680;2023-04-20T09:50:15;12.10;99.90
5689;DHT22;2869;50.432;8.680;2023-04-20T09:52:44;12.40;99.90
5689;DHT22;2869;50.432;8.680;2023-04-20T09:55:13;12.50;99.90
5689;DHT22;2869;50.432;8.680;2023-04-20T09:57:40;12.50;99.90
5689;DHT22;2869;50.432;8.680;2023-04-20T10:00:08;12.30;99.90
5689;DHT22;2869;50.432;8.680;2023-04-20T10:02:37;12.10;99.90
5689;DHT22;2869;50.432;8.680;2023-04-20T10:05:05;12.00;99.90
5689;DHT22;2869;50.432;8.680;2023-04-20T10:07:31;12.20;99.90
5689;DHT22;2869;50.432;8.680;2023-04-20T10:10:06;12.50;99.90
5689;DHT22;2869;50.432;8.680;2023-04-20T10:12:45;12.70;99.90
5689;DHT22;2869;50.432;8.680;2023-04-20T10:15:12;12.90;99.90
5689;DHT22;2869;50.432;8.680;2023-04-20T10:17:38;12.60;99.90
5689;DHT22;2869;50.432;8.680;2023-04-20T10:20:17;12.30;99.90
5689;DHT22;2869;50.432;8.680;2023-04-20T10:22:43;12.10;99.90
5689;DHT22;2869;50.432;8.680;2023-04-20T10:25:16;12.10;99.90
5689;DHT22;2869;50.432;8.680;2023-04-20T10:27:54;12.20;99.90
5689;DHT22;2869;50.432;8.680;2023-04-20T10:30:21;12.10;99.90
5689;DHT22;2869;50.432;8.680;2023-04-20T10:32:49;11.70;99.90
5689;DHT22;2869;50.432;8.680;2023-04-20T10:35:15;12.10;99.90
5689;DHT22;2869;50.432;8.680;2023-04-20T10:37:49;12.60;99.90
5689;DHT22;2869;50.432;8.680;2023-04-20T10:40:24;13.20;99.90
5689;DHT22;2869;50.432;8.680;2023-04-20T10:42:50;13.70;99.90
5689;DHT22;2869;50.432;8.680;2023-04-20T10:45:17;13.50;99.90
5689;DHT22;2869;50.432;8.680;2023-04-20T10:47:45;13.30;99.90
5689;DHT22;2869;50.432;8.680;2023-04-20T10:50:13;13.10;99.90
5689;DHT22;2869;50.432;8.680;2023-04-20T10:52:41;12.90;99.90
5689;DHT22;2869;50.432;8.680;2023-04-20T10:55:18;12.90;99.90
5689;DHT22;2869;50.432;8.680;2023-04-20T10:57:45;12.80;99.90
5689;DHT22;2869;50.432;8.680;2023-04-20T11:00:14;12.60;99.90
5689;DHT22;2869;50.432;8.680;2023-04-20T11:02:46;12.40;99.90
5689;DHT22;2869;50.432;8.680;2023-04-20T11:05:13;12.70;99.90
5689;DHT22;2869;50.432;8.680;2023-04-20T11:07:46;13.00;99.90
5689;DHT22;2869;50.432;8.680;2023-04-20T11:10:13;13.00;99.90
5689;DHT22;2869;50.432;8.680;2023-04-20T11:12:41;12.70;99.90
5689;DHT22;2869;50.432;8.680;2023-04-20T11:15:08;12.30;99.90
5689;DHT22;2869;50.432;8.680;2023-04-20T11:17:36;12.00;99.90
5689;DHT22;2869;50.432;8.680;2023-04-20T11:20:04;11.80;99.90
5689;DHT22;2869;50.432;8.680;2023-04-20T11:22:35;11.60;99.90
5689;DHT22;2869;50.432;8.680;2023-04-20T11:25:03;11.40;99.90
5689;DHT22;2869;50.432;8.680;2023-04-20T11:27:31;11.10;99.90
5689;DHT22;2869;50.432;8.680;2023-04-20T11:29:59;10.90;99.90
5689;DHT22;2869;50.432;8.680;2023-04-20T11:32:30;10.90;99.90
5689;DHT22;2869;50.432;8.680;2023-04-20T11:34:58;10.90;99.90
5689;DHT22;2869;50.432;8.680;2023-04-20T11:37:25;10.90;99.90
5689;DHT22;2869;50.432;8.680;2023-04-20T11:39:59;10.90;99.90
5689;DHT22;2869;50.432;8.680;2023-04-20T11:42:26;10.90;99.90
5689;DHT22;2869;50.432;8.680;2023-04-20T11:44:52;11.00;99.90
5689;DHT22;2869;50.432;8.680;2023-04-20T11:47:20;11.10;99.90
5689;DHT22;2869;50.432;8.680;2023-04-20T11:49:47;11.10;99.90
5689;DHT22;2869;50.432;8.680;2023-04-20T11:52:14;11.00;99.90
5689;DHT22;2869;50.432;8.680;2023-04-20T11:54:40;11.10;99.90
5689;DHT22;2869;50.432;8.680;2023-04-20T11:57:07;11.40;99.90
5689;DHT22;2869;50.432;8.680;2023-04-20T11:59:34;12.10;99.90
5689;DHT22;2869;50.432;8.680;2023-04-20T12:02:01;12.60;99.90
5689;DHT22;2869;50.432;8.680;2023-04-20T12:04:30;12.70;99.90
5689;DHT22;2869;50.432;8.680;2023-04-20T12:06:57;12.60;99.90
5689;DHT22;2869;50.432;8.680;2023-04-20T12:09:24;12.30;99.90
5689;DHT22;2869;50.432;8.680;2023-04-20T12:11:51;12.00;99.90
5689;DHT22;2869;50.432;8.680;2023-04-20T12:14:17;11.90;99.90
5689;DHT22;2869;50.432;8.680;2023-04-20T12:16:44;11.90;99.90
5689;DHT22;2869;50.432;8.680;2023-04-20T12:19:11;11.80;99.90
5689;DHT22;2869;50.432;8.680;2023-04-20T12:21:39;11.80;99.90
5689;DHT22;2869;50.432;8.680;2023-04-20T12:24:05;11.90;99.90
5689;DHT22;2869;50.432;8.680;2023-04-20T12:26:32;12.20;99.90
5689;DHT22;2869;50.432;8.680;2023-04-20T12:29:00;12.20;99.90
5689;DHT22;2869;50.432;8.680;2023-04-20T12:31:27;12.30;99.90
5689;DHT22;2869;50.432;8.680;2023-04-20T12:33:53;12.30;99.90
5689;DHT22;2869;50.432;8.680;2023-04-20T12:36:20;12.30;99.90
5689;DHT22;2869;50.432;8.680;2023-04-20T12:38:49;12.60;99.90
5689;DHT22;2869;50.432;8.680;2023-04-20T12:41:16;12.60;99.90
5689;DHT22;2869;50.432;8.680;2023-04-20T12:43:43;12.80;99.90
5689;DHT22;2869;50.432;8.680;2023-04-20T12:46:10;12.90;99.90
5689;DHT22;2869;50.432;8.680;2023-04-20T12:48:36;12.80;99.90
5689;DHT22;2869;50.432;8.680;2023-04-20T12:51:03;12.60;99.90
5689;DHT22;2869;50.432;8.680;2023-04-20T12:53:29;12.50;99.90
5689;DHT22;2869;50.432;8.680;2023-04-20T12:55:57;12.30;99.90
5689;DHT22;2869;50.432;8.680;2023-04-20T12:58:24;12.10;99.90
5689;DHT22;2869;50.432;8.680;2023-04-20T13:00:51;12.30;99.90
5689;DHT22;2869;50.432;8.680;2023-04-20T13:03:17;12.50;99.90
5689;DHT22;2869;50.432;8.680;2023-04-20T13:05:44;12.50;99.90
5689;DHT22;2869;50.432;8.680;2023-04-20T13:08:11;12.50;99.90
5689;DHT22;2869;50.432;8.680;2023-04-20T13:10:38;12.50;99.90
5689;DHT22;2869;50.432;8.680;2023-04-20T13:13:07;12.50;99.90
5689;DHT22;2869;50.432;8.680;2023-04-20T13:15:34;12.50;99.90
5689;DHT22;2869;50.432;8.680;2023-04-20T13:18:01;12.80;99.90
5689;DHT22;2869;50.432;8.680;2023-04-20T13:20:28;13.10;99.90
5689;DHT22;2869;50.432;8.680;2023-04-20T13:22:54;13.20;99.90
5689;DHT22;2869;50.432;8.680;2023-04-20T13:25:22;13.10;99.90
5689;DHT22;2869;50.432;8.680;2023-04-20T13:27:49;12.90;99.90
5689;DHT22;2869;50.432;8.680;2023-04-20T13:30:17;12.90;99.90
5689;DHT22;2869;50.432;8.680;2023-04-20T13:32:43;12.70;99.90
5689;DHT22;2869;50.432;8.680;2023-04-20T13:35:10;12.40;99.90
5689;DHT22;2869;50.432;8.680;2023-04-20T13:37:39;12.10;99.90
5689;DHT22;2869;50.432;8.680;2023-04-20T13:40:07;11.90;99.90
5689;DHT22;2869;50.432;8.680;2023-04-20T13:42:34;11.70;99.90
5689;DHT22;2869;50.432;8.680;2023-04-20T13:45:01;11.50;99.90
5689;DHT22;2869;50.432;8.680;2023-04-20T13:47:30;11.40;99.90
5689;DHT22;2869;50.432;8.680;2023-04-20T13:49:56;11.30;99.90
5689;DHT22;2869;50.432;8.680;2023-04-20T13:52:23;11.20;99.90
5689;DHT22;2869;50.432;8.680;2023-04-20T13:54:50;11.10;99.90
5689;DHT22;2869;50.432;8.680;2023-04-20T13:57:16;11.10;99.90
5689;DHT22;2869;50.432;8.680;2023-04-20T13:59:43;11.00;99.90
5689;DHT22;2869;50.432;8.680;2023-04-20T14:02:10;11.00;99.90
5689;DHT22;2869;50.432;8.680;2023-04-20T14:04:37;10.70;99.90
5689;DHT22;2869;50.432;8.680;2023-04-20T14:07:04;10.70;99.90
5689;DHT22;2869;50.432;8.680;2023-04-20T14:09:31;10.50;99.90
5689;DHT22;2869;50.432;8.680;2023-04-20T14:11:58;10.40;99.90
5689;DHT22;2869;50.432;8.680;2023-04-20T14:14:26;10.20;99.90
5689;DHT22;2869;50.432;8.680;2023-04-20T14:16:53;10.10;99.90
5689;DHT22;2869;50.432;8.680;2023-04-20T14:19:19;10.10;99.90
5689;DHT22;2869;50.432;8.680;2023-04-20T14:21:47;10.10;99.90
5689;DHT22;2869;50.432;8.680;2023-04-20T14:24:14;10.20;99.90
5689;DHT22;2869;50.432;8.680;2023-04-20T14:26:41;10.10;99.90
5689;DHT22;2869;50.432;8.680;2023-04-20T14:29:08;10.20;99.90
5689;DHT22;2869;50.432;8.680;2023-04-20T14:31:34;10.20;99.90
5689;DHT22;2869;50.432;8.680;2023-04-20T14:34:01;10.20;99.90
5689;DHT22;2869;50.432;8.680;2023-04-20T14:36:28;10.20;99.90
5689;DHT22;2869;50.432;8.680;2023-04-20T14:38:58;10.20;99.90
5689;DHT22;2869;50.432;8.680;2023-04-20T14:41:24;10.10;99.90
5689;DHT22;2869;50.432;8.680;2023-04-20T14:43:51;10.00;99.90
5689;DHT22;2869;50.432;8.680;2023-04-20T14:46:18;9.90;99.90
5689;DHT22;2869;50.432;8.680;2023-04-20T14:48:44;9.80;99.90
5689;DHT22;2869;50.432;8.680;2023-04-20T14:51:11;9.70;99.90
5689;DHT22;2869;50.432;8.680;2023-04-20T14:53:38;9.60;99.90
5689;DHT22;2869;50.432;8.680;2023-04-20T14:56:06;9.50;99.90
5689;DHT22;2869;50.432;8.680;2023-04-20T14:58:33;9.40;99.90
5689;DHT22;2869;50.432;8.680;2023-04-20T15:01:01;9.40;99.90
5689;DHT22;2869;50.432;8.680;2023-04-20T15:03:28;9.30;99.90
5689;DHT22;2869;50.432;8.680;2023-04-20T15:05:59;9.30;99.90
5689;DHT22;2869;50.432;8.680;2023-04-20T15:08:26;9.30;99.90
5689;DHT22;2869;50.432;8.680;2023-04-20T15:10:53;9.30;99.90
5689;DHT22;2869;50.432;8.680;2023-04-20T15:13:22;9.30;99.90
5689;DHT22;2869;50.432;8.680;2023-04-20T15:15:49;9.20;99.90
5689;DHT22;2869;50.432;8.680;2023-04-20T15:18:16;9.20;99.90
5689;DHT22;2869;50.432;8.680;2023-04-20T15:20:43;9.20;99.90
5689;DHT22;2869;50.432;8.680;2023-04-20T15:23:09;9.20;99.90
5689;DHT22;2869;50.432;8.680;2023-04-20T15:25:36;9.20;99.90
5689;DHT22;2869;50.432;8.680;2023-04-20T15:28:03;9.10;99.90
5689;DHT22;2869;50.432;8.680;2023-04-20T15:30:31;9.10;99.90
5689;DHT22;2869;50.432;8.680;2023-04-20T15:32:58;9.10;99.90
5689;DHT22;2869;50.432;8.680;2023-04-20T15:35:25;9.10;99.90
5689;DHT22;2869;50.432;8.680;2023-04-20T15:37:52;9.10;99.90
5689;DHT22;2869;50.432;8.680;2023-04-20T15:40:18;9.00;99.90
5689;DHT22;2869;50.432;8.680;2023-04-20T15:42:45;8.90;99.90
5689;DHT22;2869;50.432;8.680;2023-04-20T15:45:12;8.80;99.90
5689;DHT22;2869;50.432;8.680;2023-04-20T15:47:40;8.70;99.90
5689;DHT22;2869;50.432;8.680;2023-04-20T15:50:07;8.60;99.90
5689;DHT22;2869;50.432;8.680;2023-04-20T15:52:34;8.60;99.90
5689;DHT22;2869;50.432;8.680;2023-04-20T15:55:01;8.60;99.90
5689;DHT22;2869;50.432;8.680;2023-04-20T15:57:28;8.60;99.90
5689;DHT22;2869;50.432;8.680;2023-04-20T15:59:55;8.60;99.90
5689;DHT22;2869;50.432;8.680;2023-04-20T16:02:23;8.60;99.90
5689;DHT22;2869;50.432;8.680;2023-04-20T16:04:51;8.50;99.90
5689;DHT22;2869;50.432;8.680;2023-04-20T16:07:18;8.50;99.90
5689;DHT22;2869;50.432;8.680;2023-04-20T16:09:44;8.50;99.90
5689;DHT22;2869;50.432;8.680;2023-04-20T16:12:11;8.50;99.90